Time;durP1;ratioP1;P1;durP2;ratioP2;P2;SDS_P1;SDS_P2;PMS_P1;PMS_P2;Temp;Humidity;BMP_temperature;BMP_pressure;BME280_temperature;BME280_humidity;BME280_pressure;Samples;Min_cycle;Max_cycle;Signal;HPM_P1;HPM_P2
2022/07/19 00:01:24;;;;;;;7.45;3.33;;;21.20;90.60;;;;;;4137271;28;20490;-80
2022/07/19 00:03:25;;;;;;;5.85;3.60;;;21.20;90.60;;;;;;4138638;28;20060;-80
2022/07/19 00:05:26;;;;;;;6.68;3.67;;;21.10;90.60;;;;;;4137811;28;20042;-80
2022/07/19 00:07:28;;;;;;;5.78;3.75;;;21.10;90.80;;;;;;4121559;28;20073;-80
2022/07/19 00:09:29;;;;;;;8.02;3.60;;;21.10;91.10;;;;;;4139098;28;20096;-80
2022/07/19 00:11:30;;;;;;;6.43;3.78;;;21.10;91.20;;;;;;4138685;28;20265;-80
2022/07/19 00:13:31;;;;;;;7.53;3.70;;;21.10;91.20;;;;;;4136698;28;20054;-80
2022/07/19 00:15:32;;;;;;;6.85;3.55;;;21.00;91.30;;;;;;4135909;28;20114;-80
2022/07/19 00:17:33;;;;;;;6.85;4.15;;;21.00;91.40;;;;;;4136474;28;20038;-80
2022/07/19 00:19:34;;;;;;;6.57;3.65;;;21.00;91.60;;;;;;4136302;28;20046;-80
2022/07/19 00:21:35;;;;;;;7.45;4.15;;;20.90;91.70;;;;;;4136485;28;20050;-80
2022/07/19 00:23:35;;;;;;;7.85;3.50;;;20.90;91.60;;;;;;4136047;28;20050;-80
2022/07/19 00:25:36;;;;;;;11.57;4.53;;;20.90;91.70;;;;;;4135594;28;20049;-80
2022/07/19 00:27:37;;;;;;;12.32;4.60;;;20.90;91.70;;;;;;4135780;28;20100;-80
2022/07/19 00:29:38;;;;;;;9.15;4.63;;;20.80;91.80;;;;;;4135955;28;20403;-80
2022/07/19 00:31:38;;;;;;;7.00;4.40;;;20.80;91.90;;;;;;4135516;28;20050;-80
2022/07/19 00:33:39;;;;;;;8.48;4.70;;;20.70;92.10;;;;;;4134948;28;20053;-80
2022/07/19 00:35:40;;;;;;;7.13;4.30;;;20.70;92.20;;;;;;4134890;28;20521;-79
2022/07/19 00:37:41;;;;;;;8.88;4.90;;;20.70;92.40;;;;;;4135643;28;20077;-80
2022/07/19 00:39:42;;;;;;;9.20;3.83;;;20.60;92.50;;;;;;4135696;28;20522;-79
2022/07/19 00:41:43;;;;;;;9.25;4.35;;;20.60;92.60;;;;;;4136610;28;20573;-80
2022/07/19 00:43:44;;;;;;;10.70;3.83;;;20.60;92.80;;;;;;4136565;28;20129;-80
2022/07/19 00:45:46;;;;;;;5.40;3.80;;;20.60;92.90;;;;;;4136695;28;20053;-80
2022/07/19 00:47:47;;;;;;;10.00;3.80;;;20.60;93.00;;;;;;4136868;28;20053;-79
2022/07/19 00:49:47;;;;;;;8.82;3.97;;;20.60;93.10;;;;;;4136623;28;20038;-79
2022/07/19 00:51:54;;;;;;;5.57;3.15;;;20.60;93.10;;;;;;4137254;28;20470;-80
2022/07/19 00:53:56;;;;;;;7.93;3.35;;;20.50;93.20;;;;;;4136516;28;20074;-80
2022/07/19 00:55:59;;;;;;;6.70;3.50;;;20.50;93.20;;;;;;4136191;28;20046;-80
2022/07/19 00:58:01;;;;;;;4.82;3.20;;;20.50;93.30;;;;;;4136739;28;20061;-80
2022/07/19 01:00:03;;;;;;;6.50;3.55;;;20.50;93.30;;;;;;4135577;28;20046;-80
2022/07/19 01:02:04;;;;;;;8.65;3.90;;;20.40;93.20;;;;;;4135851;28;20047;-81
2022/07/19 01:04:05;;;;;;;7.22;3.50;;;20.40;93.30;;;;;;4135610;28;20509;-80
2022/07/19 01:06:08;;;;;;;10.13;3.78;;;20.40;93.60;;;;;;4135004;28;20054;-79
2022/07/19 01:08:08;;;;;;;6.90;3.70;;;20.40;93.70;;;;;;4136792;28;20160;-80
2022/07/19 01:10:11;;;;;;;7.32;3.47;;;20.40;93.70;;;;;;4119607;28;20490;-80
2022/07/19 01:12:12;;;;;;;11.35;4.60;;;20.30;93.50;;;;;;4134801;28;20048;-80
2022/07/19 01:14:14;;;;;;;7.97;4.18;;;20.30;93.40;;;;;;4137089;28;20463;-80
2022/07/19 01:16:15;;;;;;;7.15;3.53;;;20.30;93.40;;;;;;4136551;28;20042;-80
2022/07/19 01:18:16;;;;;;;6.35;3.95;;;20.20;93.40;;;;;;4136419;28;20073;-80
2022/07/19 01:20:18;;;;;;;6.50;3.72;;;20.10;93.40;;;;;;4136582;28;20097;-80
2022/07/19 01:22:18;;;;;;;5.25;3.47;;;20.10;93.70;;;;;;4136887;28;20149;-80
2022/07/19 01:24:19;;;;;;;6.00;3.50;;;20.10;93.80;;;;;;4136211;28;20058;-80
2022/07/19 01:26:20;;;;;;;6.40;3.20;;;20.10;94.00;;;;;;4135394;28;20513;-80
2022/07/19 01:28:21;;;;;;;6.38;3.45;;;20.10;94.00;;;;;;4136198;28;20050;-80
2022/07/19 01:30:24;;;;;;;6.65;3.80;;;20.00;93.90;;;;;;4136581;28;20042;-80
2022/07/19 01:32:26;;;;;;;7.53;3.92;;;20.00;94.10;;;;;;4135282;28;20434;-80
2022/07/19 01:34:27;;;;;;;5.68;3.20;;;19.90;94.20;;;;;;4133869;28;20125;-80
2022/07/19 01:36:28;;;;;;;6.80;3.75;;;19.90;94.20;;;;;;4134087;28;20062;-79
2022/07/19 01:38:28;;;;;;;5.47;3.20;;;19.80;94.50;;;;;;4133203;28;20414;-80
2022/07/19 01:40:29;;;;;;;8.23;3.70;;;19.90;94.70;;;;;;4134074;28;20475;-80
2022/07/19 01:42:30;;;;;;;8.35;3.10;;;19.90;94.70;;;;;;4134028;28;20053;-80
2022/07/19 01:44:31;;;;;;;9.13;3.88;;;19.80;94.70;;;;;;4116887;28;20530;-80
2022/07/19 01:46:32;;;;;;;6.30;3.67;;;19.80;94.80;;;;;;4148491;28;20399;-81
2022/07/19 01:48:33;;;;;;;7.90;3.90;;;19.80;94.80;;;;;;4133643;28;20161;-80
2022/07/19 01:50:33;;;;;;;7.15;3.42;;;19.80;94.80;;;;;;4134097;28;20074;-80
2022/07/19 01:52:35;;;;;;;8.60;3.58;;;19.70;94.70;;;;;;4133365;28;20042;-80
2022/07/19 01:54:36;;;;;;;6.78;3.50;;;19.70;94.80;;;;;;4133518;28;20054;-80
2022/07/19 01:56:41;;;;;;;5.80;2.97;;;19.70;94.90;;;;;;4116302;28;20056;-80
2022/07/19 01:58:42;;;;;;;8.93;3.85;;;19.60;94.90;;;;;;4133674;28;20046;-80
2022/07/19 02:00:43;;;;;;;5.57;2.92;;;19.50;94.80;;;;;;4115782;28;20062;-80
2022/07/19 02:02:44;;;;;;;7.18;3.33;;;19.50;94.90;;;;;;4133485;28;20121;-79
2022/07/19 02:04:44;;;;;;;5.15;3.50;;;19.50;95.00;;;;;;4132689;28;20054;-80
2022/07/19 02:06:45;;;;;;;6.95;3.38;;;19.50;95.20;;;;;;4133249;28;20050;-80
2022/07/19 02:08:46;;;;;;;5.40;3.40;;;19.50;95.20;;;;;;4116464;28;20047;-80
2022/07/19 02:10:47;;;;;;;5.95;3.38;;;19.40;95.20;;;;;;4133520;28;20042;-80
2022/07/19 02:12:48;;;;;;;9.45;3.47;;;19.40;95.20;;;;;;4116013;28;20047;-80
2022/07/19 02:14:49;;;;;;;5.80;3.40;;;19.30;95.30;;;;;;4133492;28;20483;-81
2022/07/19 02:16:49;;;;;;;7.38;3.97;;;19.30;95.50;;;;;;4115668;28;20043;-80
2022/07/19 02:18:50;;;;;;;7.85;4.03;;;19.30;95.50;;;;;;4133675;28;20050;-80
2022/07/19 02:20:51;;;;;;;8.07;3.72;;;19.20;95.70;;;;;;4133291;28;20509;-80
2022/07/19 02:22:52;;;;;;;6.40;3.00;;;19.20;95.80;;;;;;4133270;28;20082;-81
2022/07/19 02:24:52;;;;;;;7.13;3.20;;;19.20;96.00;;;;;;4133975;28;20065;-80
2022/07/19 02:26:53;;;;;;;7.28;3.47;;;19.20;96.00;;;;;;4134350;28;20089;-80
2022/07/19 02:28:54;;;;;;;6.00;3.38;;;19.20;96.10;;;;;;4117176;28;20050;-80
2022/07/19 02:30:54;;;;;;;7.90;3.67;;;19.20;96.00;;;;;;4134587;28;20050;-80
2022/07/19 02:32:55;;;;;;;8.80;4.18;;;19.20;96.00;;;;;;4116955;28;20066;-80
2022/07/19 02:34:56;;;;;;;6.05;4.13;;;19.10;96.00;;;;;;4117423;28;20511;-80
2022/07/19 02:36:57;;;;;;;7.10;3.65;;;19.10;96.10;;;;;;4134119;28;20491;-80
2022/07/19 02:38:58;;;;;;;8.07;3.55;;;19.10;96.10;;;;;;4116500;28;20061;-80
2022/07/19 02:40:59;;;;;;;5.63;3.30;;;19.00;96.30;;;;;;4133741;28;20074;-80
2022/07/19 02:43:00;;;;;;;7.60;4.10;;;19.00;96.30;;;;;;4133140;28;20380;-80
2022/07/19 02:45:01;;;;;;;10.02;4.75;;;19.00;96.50;;;;;;4133204;28;20050;-79
2022/07/19 02:47:02;;;;;;;12.57;4.35;;;19.00;96.50;;;;;;4133756;28;20119;-79
2022/07/19 02:49:03;;;;;;;10.50;4.57;;;18.90;96.60;;;;;;4133635;28;20100;-80
2022/07/19 02:51:04;;;;;;;8.52;3.85;;;18.90;96.70;;;;;;4133592;28;20097;-80
2022/07/19 02:53:04;;;;;;;10.27;4.95;;;18.90;96.70;;;;;;4132943;28;20046;-80
2022/07/19 02:55:06;;;;;;;7.97;4.40;;;18.90;96.80;;;;;;4116165;28;20050;-80
2022/07/19 02:57:08;;;;;;;8.40;4.10;;;18.90;96.80;;;;;;4133800;28;20255;-80
2022/07/19 02:59:08;;;;;;;6.43;3.85;;;19.00;97.20;;;;;;4132954;28;20157;-79
2022/07/19 03:01:09;;;;;;;6.80;4.25;;;19.00;96.90;;;;;;4116829;28;20100;-80
2022/07/19 03:05:29;;;;;;;7.53;3.30;;;19.00;96.80;;;;;;4132969;28;20454;-80
2022/07/19 03:07:30;;;;;;;7.90;3.70;;;19.00;96.70;;;;;;4131796;28;20058;-79
2022/07/19 03:09:31;;;;;;;7.57;3.88;;;19.00;96.80;;;;;;4132947;28;20042;-80
2022/07/19 03:11:31;;;;;;;7.57;3.63;;;18.90;96.70;;;;;;4133462;28;20046;-80
2022/07/19 03:13:33;;;;;;;5.63;3.25;;;18.90;96.70;;;;;;4133310;28;20564;-79
2022/07/19 03:15:33;;;;;;;6.93;3.90;;;18.80;96.80;;;;;;4133175;28;20054;-80
2022/07/19 03:17:34;;;;;;;8.85;4.22;;;18.80;96.90;;;;;;4132685;28;20046;-80
2022/07/19 03:19:35;;;;;;;9.10;3.75;;;18.80;96.90;;;;;;4133322;28;20125;-79
2022/07/19 03:21:35;;;;;;;5.78;3.55;;;18.70;97.30;;;;;;4132115;28;20050;-79
2022/07/19 03:23:37;;;;;;;8.45;3.90;;;18.80;97.30;;;;;;4115197;28;20059;-80
2022/07/19 03:25:38;;;;;;;9.77;3.90;;;18.80;97.30;;;;;;4132269;28;20042;-80
2022/07/19 03:27:39;;;;;;;7.05;3.80;;;18.80;97.20;;;;;;4132833;28;20046;-80
2022/07/19 03:29:39;;;;;;;7.05;3.88;;;18.70;97.20;;;;;;4133535;28;20047;-80
2022/07/19 03:31:40;;;;;;;7.07;3.97;;;18.70;97.10;;;;;;4134100;28;20081;-79
2022/07/19 03:33:41;;;;;;;5.18;3.33;;;18.70;97.40;;;;;;4133301;28;20038;-80
2022/07/19 03:35:43;;;;;;;9.73;3.75;;;18.60;97.20;;;;;;4133890;28;20050;-80
2022/07/19 03:37:44;;;;;;;8.18;3.72;;;18.60;97.20;;;;;;4116946;28;20046;-80
2022/07/19 03:39:45;;;;;;;8.25;4.32;;;18.60;97.20;;;;;;4133764;28;20134;-80
2022/07/19 03:41:46;;;;;;;9.30;4.15;;;18.60;97.30;;;;;;4132943;28;20093;-80
2022/07/19 03:43:46;;;;;;;8.55;4.15;;;18.50;97.40;;;;;;4133115;28;20399;-80
2022/07/19 03:45:47;;;;;;;5.18;3.85;;;18.50;97.50;;;;;;4132019;28;20050;-80
2022/07/19 03:47:48;;;;;;;7.82;4.07;;;18.50;97.50;;;;;;4132552;28;20038;-80
2022/07/19 03:49:49;;;;;;;5.90;3.67;;;18.50;97.60;;;;;;4132935;28;20133;-80
2022/07/19 03:51:49;;;;;;;8.77;4.90;;;18.50;97.70;;;;;;4134842;28;20402;-80
2022/07/19 03:53:50;;;;;;;8.75;3.50;;;18.50;97.80;;;;;;4135008;28;20510;-80
2022/07/19 03:55:51;;;;;;;7.18;4.00;;;18.50;97.60;;;;;;4134907;28;20525;-80
2022/07/19 03:57:53;;;;;;;7.38;3.75;;;18.50;97.70;;;;;;4135009;28;20049;-80
2022/07/19 03:59:54;;;;;;;9.43;4.57;;;18.50;97.80;;;;;;4117608;28;20125;-80
2022/07/19 04:01:55;;;;;;;6.97;3.75;;;18.50;97.90;;;;;;4135719;28;20105;-80
2022/07/19 04:03:55;;;;;;;6.03;3.75;;;18.50;98.10;;;;;;4134988;28;20085;-81
2022/07/19 04:05:58;;;;;;;7.40;3.50;;;18.50;97.90;;;;;;4134633;28;20104;-81
2022/07/19 04:07:58;;;;;;;6.93;3.75;;;18.50;97.90;;;;;;4135056;28;20499;-81
2022/07/19 04:09:59;;;;;;;8.50;4.78;;;18.50;97.90;;;;;;4134853;28;20043;-80
2022/07/19 04:12:00;;;;;;;8.85;3.72;;;18.50;97.90;;;;;;4134115;28;20128;-81
2022/07/19 04:14:00;;;;;;;6.43;3.42;;;18.60;98.20;;;;;;4134703;28;20426;-81
2022/07/19 04:16:01;;;;;;;8.05;3.60;;;18.60;98.20;;;;;;4134417;28;20057;-81
2022/07/19 04:18:02;;;;;;;9.45;4.05;;;18.60;98.20;;;;;;4134558;28;20042;-81
2022/07/19 04:20:05;;;;;;;7.55;3.63;;;18.60;98.30;;;;;;4134441;28;20487;-82
2022/07/19 04:22:05;;;;;;;5.05;3.70;;;18.70;98.20;;;;;;4134059;28;20561;-81
2022/07/19 04:24:06;;;;;;;9.95;4.25;;;18.70;98.20;;;;;;4117051;28;20043;-81
2022/07/19 04:26:08;;;;;;;5.60;3.30;;;18.70;98.20;;;;;;4149110;28;20046;-81
2022/07/19 04:28:09;;;;;;;9.43;3.53;;;18.60;98.20;;;;;;4134569;28;20073;-81
2022/07/19 04:30:10;;;;;;;8.35;3.67;;;18.60;98.30;;;;;;4133844;28;20125;-81
2022/07/19 04:32:10;;;;;;;8.70;3.97;;;18.60;98.30;;;;;;4133939;28;20068;-82
2022/07/19 04:34:11;;;;;;;9.27;3.95;;;18.60;98.40;;;;;;4134139;28;20042;-81
2022/07/19 04:36:13;;;;;;;13.38;4.90;;;18.60;98.40;;;;;;4116337;28;20046;-81
2022/07/19 04:38:13;;;;;;;7.57;4.32;;;18.70;98.30;;;;;;4133632;28;20125;-82
2022/07/19 04:40:14;;;;;;;10.13;4.90;;;18.70;98.30;;;;;;4133664;28;20042;-81
2022/07/19 04:42:15;;;;;;;6.45;4.10;;;18.80;98.20;;;;;;4133823;28;20125;-81
2022/07/19 04:44:16;;;;;;;9.70;4.60;;;18.80;98.20;;;;;;4134015;28;20391;-81
2022/07/19 04:46:16;;;;;;;19.38;5.45;;;18.80;98.10;;;;;;4134111;28;20511;-81
2022/07/19 04:48:17;;;;;;;8.07;4.85;;;18.90;98.00;;;;;;4100602;29;20103;-81
2022/07/19 04:50:18;;;;;;;9.57;4.88;;;18.90;97.80;;;;;;4133977;28;20465;-81
2022/07/19 04:52:19;;;;;;;9.57;4.55;;;18.90;97.60;;;;;;4133880;28;20512;-81
2022/07/19 04:54:19;;;;;;;10.88;4.85;;;19.00;97.50;;;;;;4134400;28;20050;-81
2022/07/19 04:56:20;;;;;;;8.65;4.55;;;19.00;97.30;;;;;;4133906;28;20053;-81
2022/07/19 04:58:21;;;;;;;7.45;4.45;;;19.00;97.00;;;;;;4133994;28;20035;-81
2022/07/19 05:00:22;;;;;;;7.22;4.60;;;19.10;96.90;;;;;;4133869;28;20074;-81
2022/07/19 05:02:22;;;;;;;13.63;4.80;;;19.20;96.80;;;;;;4133214;28;20565;-82
2022/07/19 05:04:23;;;;;;;9.07;5.20;;;19.20;96.60;;;;;;4134088;28;20042;-81
2022/07/19 05:06:24;;;;;;;12.35;4.90;;;19.20;96.50;;;;;;4134349;28;20096;-81
2022/07/19 05:08:26;;;;;;;11.52;5.18;;;19.30;96.40;;;;;;4134320;28;20054;-81
2022/07/19 05:10:27;;;;;;;8.48;5.05;;;19.40;96.20;;;;;;4132150;28;20034;-82
2022/07/19 05:12:27;;;;;;;7.97;4.10;;;19.40;96.20;;;;;;4115993;28;20051;-82
2022/07/19 05:14:28;;;;;;;8.05;4.25;;;19.50;96.00;;;;;;4134200;28;20529;-82
2022/07/19 05:16:29;;;;;;;7.22;4.47;;;19.60;95.90;;;;;;4134523;28;20046;-81
2022/07/19 05:18:30;;;;;;;11.60;4.80;;;19.60;95.80;;;;;;4134999;28;20042;-79
2022/07/19 05:20:31;;;;;;;12.10;5.22;;;19.70;95.70;;;;;;4117487;28;20057;-79
2022/07/19 05:22:31;;;;;;;10.82;4.93;;;19.70;95.60;;;;;;4133608;28;20052;-79
2022/07/19 05:24:32;;;;;;;7.47;4.43;;;19.80;95.50;;;;;;4133311;28;20054;-80
2022/07/19 05:26:35;;;;;;;10.60;5.10;;;19.80;95.50;;;;;;4133240;28;20050;-79
2022/07/19 05:28:35;;;;;;;9.68;4.80;;;19.80;95.40;;;;;;4133207;28;20356;-80
2022/07/19 05:30:36;;;;;;;9.65;4.75;;;19.90;95.40;;;;;;4133659;28;20052;-81
2022/07/19 05:32:37;;;;;;;7.03;4.47;;;19.90;95.30;;;;;;4133358;28;20451;-80
2022/07/19 05:34:38;;;;;;;8.85;4.35;;;19.90;95.30;;;;;;4133802;28;20119;-80
2022/07/19 05:36:39;;;;;;;11.00;4.72;;;20.00;95.30;;;;;;4133801;28;20050;-81
2022/07/19 05:38:40;;;;;;;7.75;4.65;;;20.00;95.20;;;;;;4115419;28;20137;-80
2022/07/19 05:40:41;;;;;;;9.20;5.05;;;20.10;95.10;;;;;;4132949;28;20081;-82
2022/07/19 05:42:41;;;;;;;8.85;4.43;;;20.20;94.90;;;;;;4132699;28;20104;-80
2022/07/19 05:44:42;;;;;;;14.90;5.20;;;20.30;94.70;;;;;;4135728;28;20085;-81
2022/07/19 05:46:43;;;;;;;13.30;4.95;;;20.30;94.50;;;;;;4131151;28;20149;-81
2022/07/19 05:48:44;;;;;;;9.20;4.85;;;20.40;94.30;;;;;;4146176;28;20521;-81
2022/07/19 05:50:45;;;;;;;9.15;4.20;;;20.50;94.20;;;;;;4119475;28;20046;-80
2022/07/19 05:52:45;;;;;;;8.60;3.90;;;20.60;94.10;;;;;;4129678;28;20042;-81
2022/07/19 05:54:46;;;;;;;11.13;4.53;;;20.60;94.10;;;;;;4122671;28;20088;-80
2022/07/19 05:56:48;;;;;;;9.90;4.32;;;20.70;93.60;;;;;;4125030;28;20131;-81
2022/07/19 05:58:49;;;;;;;12.30;4.68;;;20.80;93.30;;;;;;4126818;28;20380;-81
2022/07/19 06:03:09;;;;;;;8.63;4.22;;;21.00;92.90;;;;;;4122313;28;20046;-82
2022/07/19 06:05:10;;;;;;;9.07;3.85;;;21.10;92.60;;;;;;4134261;28;20050;-82
2022/07/19 06:07:11;;;;;;;9.20;4.20;;;21.10;92.30;;;;;;4132452;28;20513;-81
2022/07/19 06:09:12;;;;;;;6.72;3.70;;;21.20;91.90;;;;;;4131703;28;20043;-81
2022/07/19 06:11:14;;;;;;;10.27;3.70;;;21.30;91.70;;;;;;4133751;28;20431;-82
2022/07/19 06:13:15;;;;;;;10.88;4.43;;;21.50;91.50;;;;;;4132105;28;20046;-82
2022/07/19 06:15:16;;;;;;;5.93;3.90;;;21.50;91.20;;;;;;4141311;28;20046;-82
2022/07/19 06:17:16;;;;;;;6.90;3.70;;;21.60;91.00;;;;;;4131156;28;20051;-82
2022/07/19 06:19:17;;;;;;;9.90;4.43;;;21.70;90.80;;;;;;4133957;28;20117;-81
2022/07/19 06:21:19;;;;;;;6.32;3.80;;;21.70;90.80;;;;;;4132527;28;20129;-83
2022/07/19 06:23:20;;;;;;;8.43;3.85;;;21.80;90.70;;;;;;4133414;28;20107;-82
2022/07/19 06:25:21;;;;;;;6.93;3.67;;;21.90;90.70;;;;;;4133678;28;20391;-82
2022/07/19 06:27:22;;;;;;;9.32;4.47;;;22.00;90.70;;;;;;4131721;28;20085;-82
2022/07/19 06:29:23;;;;;;;9.32;3.90;;;22.00;90.50;;;;;;4131773;28;20533;-82
2022/07/19 06:31:23;;;;;;;15.68;4.97;;;22.10;90.20;;;;;;4131983;28;20117;-83
2022/07/19 06:33:24;;;;;;;8.60;4.20;;;22.20;90.10;;;;;;4132644;28;20042;-87
2022/07/19 06:35:25;;;;;;;7.15;3.80;;;22.20;90.00;;;;;;4115206;28;20121;-86
2022/07/19 06:37:26;;;;;;;8.38;4.00;;;22.30;89.10;;;;;;4132735;28;20089;-87
2022/07/19 06:39:28;;;;;;;8.73;3.95;;;22.40;88.50;;;;;;4132356;28;20403;-87
2022/07/19 06:41:29;;;;;;;7.30;3.92;;;22.40;87.70;;;;;;4132609;28;20046;-87
2022/07/19 06:43:30;;;;;;;7.90;4.10;;;22.50;87.10;;;;;;4143740;28;20180;-87
2022/07/19 06:45:31;;;;;;;9.02;3.88;;;22.60;86.40;;;;;;4129165;28;20049;-86
2022/07/19 06:47:32;;;;;;;11.25;3.92;;;22.70;86.10;;;;;;4124436;28;20074;-88
2022/07/19 06:49:33;;;;;;;5.43;3.58;;;22.80;85.90;;;;;;4124703;28;20046;-87
2022/07/19 06:51:35;;;;;;;12.80;3.88;;;22.80;86.10;;;;;;4116059;28;20499;-87
2022/07/19 06:53:36;;;;;;;11.65;3.70;;;23.00;85.30;;;;;;4132551;28;20050;-86
2022/07/19 06:55:37;;;;;;;9.45;3.35;;;23.00;84.90;;;;;;4132635;28;20122;-86
2022/07/19 06:57:38;;;;;;;7.45;3.90;;;23.10;84.90;;;;;;4132774;28;20053;-86
2022/07/19 06:59:38;;;;;;;7.78;3.85;;;23.20;84.50;;;;;;4114809;28;20054;-83
2022/07/19 07:01:39;;;;;;;8.45;3.97;;;23.30;84.30;;;;;;4131604;28;20046;-83
2022/07/19 07:03:40;;;;;;;10.52;3.55;;;23.30;84.10;;;;;;4131007;28;20057;-82
2022/07/19 07:05:41;;;;;;;7.70;3.33;;;23.50;83.70;;;;;;4131508;28;20043;-82
2022/07/19 07:07:41;;;;;;;8.75;3.78;;;23.50;83.10;;;;;;4135792;28;20055;-82
2022/07/19 07:09:42;;;;;;;9.07;3.45;;;23.60;82.80;;;;;;4129041;28;20046;-83
2022/07/19 07:11:43;;;;;;;8.00;3.70;;;23.70;81.80;;;;;;4132719;28;20052;-83
2022/07/19 07:13:44;;;;;;;9.57;3.10;;;23.80;81.30;;;;;;4130555;28;20070;-83
2022/07/19 07:15:45;;;;;;;6.13;2.90;;;23.90;80.90;;;;;;4130901;28;20073;-82
2022/07/19 07:17:46;;;;;;;11.48;2.58;;;24.00;80.40;;;;;;4131361;28;20042;-82
2022/07/19 07:19:47;;;;;;;5.50;2.88;;;24.10;79.80;;;;;;4131487;28;20038;-83
2022/07/19 07:21:48;;;;;;;5.47;2.90;;;24.20;79.40;;;;;;4130898;28;20177;-81
2022/07/19 07:23:49;;;;;;;10.93;2.70;;;24.30;78.90;;;;;;4131716;28;20117;-81
2022/07/19 07:25:50;;;;;;;6.53;2.78;;;;;;;;;;4134424;28;20046;-83
2022/07/19 07:27:51;;;;;;;6.90;3.05;;;24.30;78.10;;;;;;4135174;28;20045;-83
2022/07/19 07:29:51;;;;;;;7.32;2.85;;;24.50;76.90;;;;;;4116985;28;20134;-83
2022/07/19 07:31:52;;;;;;;6.88;2.90;;;24.60;76.20;;;;;;4135104;28;20054;-83
2022/07/19 07:33:53;;;;;;;6.40;2.60;;;24.60;75.50;;;;;;4134617;28;20113;-83
2022/07/19 07:35:55;;;;;;;9.98;2.83;;;24.80;75.40;;;;;;4135114;28;20074;-82
2022/07/19 07:37:55;;;;;;;7.63;2.58;;;24.80;74.80;;;;;;4134260;28;20048;-83
2022/07/19 07:39:56;;;;;;;7.97;2.63;;;24.90;74.70;;;;;;4132358;28;20133;-83
2022/07/19 07:41:58;;;;;;;8.32;2.30;;;24.90;74.40;;;;;;4131784;28;20457;-82
2022/07/19 07:43:59;;;;;;;8.98;2.60;;;25.00;74.40;;;;;;4086027;29;20059;-83
2022/07/19 07:46:00;;;;;;;6.85;3.10;;;25.00;75.10;;;;;;4118762;28;20376;-82
2022/07/19 07:48:01;;;;;;;10.88;2.50;;;25.10;74.50;;;;;;4118736;28;20050;-82
2022/07/19 07:50:02;;;;;;;10.40;2.88;;;25.20;74.30;;;;;;4143688;28;20573;-82
2022/07/19 07:52:04;;;;;;;9.02;2.75;;;25.30;74.20;;;;;;4132859;28;20116;-83
2022/07/19 07:54:04;;;;;;;9.98;2.65;;;25.40;74.40;;;;;;4135189;28;20403;-83
2022/07/19 07:56:05;;;;;;;5.22;2.35;;;25.50;74.70;;;;;;4134547;28;20051;-82
2022/07/19 07:58:08;;;;;;;7.18;2.80;;;25.60;74.00;;;;;;4134964;28;20506;-82
2022/07/19 08:00:12;;;;;;;6.00;2.45;;;25.60;73.30;;;;;;4136592;28;20046;-82
2022/07/19 08:02:13;;;;;;;3.88;2.55;;;25.70;73.50;;;;;;4134931;28;20085;-82
2022/07/19 08:04:13;;;;;;;5.47;2.40;;;25.80;73.30;;;;;;4134848;28;20038;-83
2022/07/19 08:06:15;;;;;;;7.00;2.60;;;25.90;73.50;;;;;;4135290;28;20616;-82
2022/07/19 08:08:16;;;;;;;6.07;2.33;;;26.00;73.80;;;;;;4135029;28;20132;-82
2022/07/19 08:10:17;;;;;;;8.18;2.45;;;26.20;73.70;;;;;;4116771;28;20388;-82
2022/07/19 08:12:18;;;;;;;7.93;2.45;;;26.20;72.00;;;;;;4135001;28;20049;-83
2022/07/19 08:14:19;;;;;;;4.85;2.05;;;26.30;71.60;;;;;;4117373;28;20066;-82
2022/07/19 08:16:20;;;;;;;5.20;2.20;;;26.30;71.30;;;;;;4134220;28;20096;-82
2022/07/19 08:18:21;;;;;;;5.10;2.40;;;26.50;71.80;;;;;;4134081;28;20105;-82
2022/07/19 08:20:21;;;;;;;5.03;2.45;;;26.60;71.10;;;;;;4133935;28;20043;-82
2022/07/19 08:22:22;;;;;;;4.15;2.20;;;26.70;70.90;;;;;;4117243;28;20054;-83
2022/07/19 08:24:23;;;;;;;9.93;2.75;;;26.80;70.90;;;;;;4135257;28;20053;-82
2022/07/19 08:26:23;;;;;;;6.35;2.20;;;26.90;70.80;;;;;;4134468;28;20121;-82
2022/07/19 08:28:24;;;;;;;12.75;2.47;;;27.00;71.20;;;;;;4133974;28;20051;-82
2022/07/19 08:30:25;;;;;;;6.50;2.20;;;27.10;69.80;;;;;;4135143;28;20498;-82
2022/07/19 08:32:26;;;;;;;13.25;3.38;;;27.20;69.40;;;;;;4134127;28;20487;-82
2022/07/19 08:34:27;;;;;;;9.70;2.30;;;27.20;69.10;;;;;;4134399;28;20038;-82
2022/07/19 08:36:27;;;;;;;8.75;2.47;;;27.30;69.60;;;;;;4134029;28;20057;-82
2022/07/19 08:38:28;;;;;;;13.20;3.33;;;27.40;68.90;;;;;;4133874;28;20057;-83
2022/07/19 08:40:33;;;;;;;8.95;2.20;;;27.40;68.80;;;;;;4134568;28;20087;-82
2022/07/19 08:42:36;;;;;;;19.52;2.35;;;27.60;68.80;;;;;;4129454;28;20505;-83
2022/07/19 08:44:39;;;;;;;6.43;2.40;;;27.70;69.30;;;;;;4132795;28;20038;-83
2022/07/19 08:46:44;;;;;;;10.40;2.45;;;27.80;68.90;;;;;;4132159;28;20045;-83
2022/07/19 08:48:47;;;;;;;4.93;2.10;;;27.90;67.00;;;;;;4132554;28;20047;-82
2022/07/19 08:50:49;;;;;;;9.23;2.22;;;28.00;67.50;;;;;;4133611;28;20046;-82
2022/07/19 08:52:51;;;;;;;10.65;2.80;;;28.10;67.00;;;;;;4133820;28;20082;-82
2022/07/19 08:54:54;;;;;;;9.00;1.95;;;28.20;67.70;;;;;;4124555;28;20113;-82
2022/07/19 08:59:14;;;;;;;11.65;2.58;;;28.40;66.50;;;;;;4126689;28;20046;-85
2022/07/19 09:01:15;;;;;;;14.95;2.65;;;28.50;65.70;;;;;;4122654;28;20046;-82
2022/07/19 09:03:16;;;;;;;6.00;2.03;;;28.60;64.90;;;;;;4121709;28;20042;-81
2022/07/19 09:05:17;;;;;;;13.52;2.40;;;28.70;64.60;;;;;;4121294;28;20047;-81
2022/07/19 09:07:19;;;;;;;8.55;2.13;;;28.80;64.30;;;;;;4128805;28;20538;-82
2022/07/19 09:09:31;;;;;;;7.50;2.08;;;28.80;64.20;;;;;;4144009;28;20050;-82
2022/07/19 09:11:34;;;;;;;14.05;2.05;;;29.00;64.50;;;;;;4128443;28;20451;-82
2022/07/19 09:13:35;;;;;;;10.63;2.10;;;29.20;65.00;;;;;;4122207;28;20050;-82
2022/07/19 09:15:45;;;;;;;2.95;1.90;;;29.30;62.80;;;;;;4128724;28;20045;-81
2022/07/19 09:17:46;;;;;;;5.75;1.80;;;29.40;59.30;;;;;;4132020;28;20483;-81
2022/07/19 09:19:49;;;;;;;6.65;1.85;;;29.50;60.30;;;;;;4132277;28;20039;-81
2022/07/19 09:21:53;;;;;;;6.47;2.00;;;29.60;59.90;;;;;;4130099;28;20097;-81
2022/07/19 09:23:58;;;;;;;6.90;1.83;;;29.70;59.10;;;;;;4131362;28;20074;-82
2022/07/19 09:26:03;;;;;;;4.18;2.17;;;29.70;58.10;;;;;;4132498;28;20050;-82
2022/07/19 09:28:05;;;;;;;9.13;1.60;;;29.80;57.20;;;;;;4124282;28;20046;-82
2022/07/19 09:30:06;;;;;;;7.78;2.00;;;29.80;57.90;;;;;;4129248;28;20039;-82
2022/07/19 09:32:11;;;;;;;4.85;1.52;;;29.90;57.10;;;;;;4131066;28;20045;-81
2022/07/19 09:34:12;;;;;;;4.32;1.85;;;29.90;56.10;;;;;;4128282;28;20054;-82
2022/07/19 09:36:14;;;;;;;6.35;2.58;;;30.00;56.60;;;;;;4131018;28;20043;-81
2022/07/19 09:38:32;;;;;;;7.57;1.77;;;30.10;55.90;;;;;;4131183;28;20058;-82
2022/07/19 09:40:35;;;;;;;6.68;1.80;;;30.20;53.90;;;;;;4129884;28;20182;-82
2022/07/19 09:42:42;;;;;;;6.63;2.45;;;30.20;55.40;;;;;;4128067;28;20049;-82
2022/07/19 09:44:44;;;;;;;6.63;1.92;;;30.30;55.30;;;;;;4131910;28;20057;-82
2022/07/19 09:46:47;;;;;;;10.82;2.05;;;30.30;55.70;;;;;;4127697;28;20042;-82
2022/07/19 09:48:48;;;;;;;7.75;2.10;;;30.40;55.10;;;;;;4125996;28;20051;-82
2022/07/19 09:50:50;;;;;;;5.07;2.22;;;30.40;54.90;;;;;;4127810;28;20050;-83
2022/07/19 09:52:51;;;;;;;3.58;1.42;;;30.40;54.70;;;;;;4130531;28;20068;-82
2022/07/19 09:54:52;;;;;;;5.05;1.67;;;30.50;54.70;;;;;;4131943;28;20108;-82
2022/07/19 09:56:56;;;;;;;6.78;2.60;;;30.70;54.50;;;;;;4132819;28;20058;-82
2022/07/19 09:58:59;;;;;;;8.95;1.80;;;30.80;53.60;;;;;;4099382;29;20508;-82
2022/07/19 10:01:00;;;;;;;4.53;1.77;;;30.80;53.60;;;;;;4115730;28;20047;-82
2022/07/19 10:03:01;;;;;;;6.03;1.75;;;30.80;53.40;;;;;;4132950;28;20050;-82
2022/07/19 10:05:07;;;;;;;3.33;1.52;;;30.80;53.60;;;;;;4132681;28;20499;-82
2022/07/19 10:07:12;;;;;;;10.27;2.28;;;30.90;53.00;;;;;;4115245;28;20130;-82
2022/07/19 10:09:17;;;;;;;3.47;1.92;;;31.10;53.60;;;;;;4134220;28;20042;-82
2022/07/19 10:11:18;;;;;;;4.43;2.25;;;31.20;53.80;;;;;;4133589;28;20058;-82
2022/07/19 10:13:19;;;;;;;9.18;2.13;;;31.30;54.30;;;;;;4134146;28;20081;-82
2022/07/19 10:15:20;;;;;;;8.38;1.90;;;31.40;53.30;;;;;;4116515;28;20047;-81
2022/07/19 10:17:35;;;;;;;7.30;1.55;;;31.50;52.80;;;;;;4134234;28;20082;-82
2022/07/19 10:19:42;;;;;;;5.80;1.67;;;31.70;53.60;;;;;;4133357;28;20054;-82
2022/07/19 10:21:45;;;;;;;6.30;1.77;;;31.90;53.30;;;;;;4133430;28;20441;-83
2022/07/19 10:23:52;;;;;;;7.22;1.63;;;32.10;51.70;;;;;;4133389;28;20050;-82
2022/07/19 10:25:54;;;;;;;7.22;1.67;;;32.10;50.80;;;;;;4132398;28;20220;-82
2022/07/19 10:27:55;;;;;;;8.52;1.70;;;32.10;51.20;;;;;;4132301;28;20399;-83
2022/07/19 10:30:07;;;;;;;4.65;1.65;;;32.20;51.50;;;;;;4132755;28;20046;-83
2022/07/19 10:32:10;;;;;;;8.43;2.05;;;32.30;50.20;;;;;;4132763;28;20050;-82
2022/07/19 10:34:22;;;;;;;5.00;1.50;;;32.30;49.60;;;;;;4133033;28;20121;-82
2022/07/19 10:36:46;;;;;;;2.55;1.40;;;32.30;48.80;;;;;;4115327;28;20046;-82
2022/07/19 10:39:26;;;;;;;10.25;2.53;;;32.30;47.70;;;;;;4133153;28;20096;-82